sensor_id;sensor_type;location;lat;lon;timestamp;P1;durP1;ratioP1;P2;durP2;ratioP2
63394;SDS011;49531;-34.520;150.798;2023-09-18T00:01:20;4.18;;;2.40;;
63394;SDS011;49531;-34.520;150.798;2023-09-18T00:03:47;4.13;;;2.40;;
63394;SDS011;49531;-34.520;150.798;2023-09-18T00:06:14;3.60;;;2.65;;
63394;SDS011;49531;-34.520;150.798;2023-09-18T00:08:42;10.05;;;2.60;;
63394;SDS011;49531;-34.520;150.798;2023-09-18T00:11:09;3.53;;;2.47;;
63394;SDS011;49531;-34.520;150.798;2023-09-18T00:13:37;3.47;;;2.42;;
63394;SDS011;49531;-34.520;150.798;2023-09-18T00:16:04;4.13;;;2.45;;
63394;SDS011;49531;-34.520;150.798;2023-09-18T00:18:31;3.65;;;2.30;;
63394;SDS011;49531;-34.520;150.798;2023-09-18T00:20:58;3.25;;;2.53;;
63394;SDS011;49531;-34.520;150.798;2023-09-18T00:23:25;4.82;;;2.60;;
63394;SDS011;49531;-34.520;150.798;2023-09-18T00:25:52;3.90;;;2.60;;
63394;SDS011;49531;-34.520;150.798;2023-09-18T00:28:19;3.53;;;2.58;;
63394;SDS011;49531;-34.520;150.798;2023-09-18T00:30:47;4.05;;;2.47;;
63394;SDS011;49531;-34.520;150.798;2023-09-18T00:33:16;2.88;;;2.58;;
63394;SDS011;49531;-34.520;150.798;2023-09-18T00:35:45;3.47;;;2.85;;
63394;SDS011;49531;-34.520;150.798;2023-09-18T00:38:15;4.05;;;2.70;;
63394;SDS011;49531;-34.520;150.798;2023-09-18T00:40:43;3.00;;;2.70;;
63394;SDS011;49531;-34.520;150.798;2023-09-18T00:43:10;4.57;;;2.67;;
63394;SDS011;49531;-34.520;150.798;2023-09-18T00:45:42;4.35;;;2.78;;
63394;SDS011;49531;-34.520;150.798;2023-09-18T00:48:11;3.10;;;2.80;;
63394;SDS011;49531;-34.520;150.798;2023-09-18T00:50:40;5.50;;;2.78;;
63394;SDS011;49531;-34.520;150.798;2023-09-18T00:53:09;3.58;;;2.60;;
63394;SDS011;49531;-34.520;150.798;2023-09-18T00:55:39;4.35;;;2.70;;
63394;SDS011;49531;-34.520;150.798;2023-09-18T00:58:07;3.90;;;3.03;;
63394;SDS011;49531;-34.520;150.798;2023-09-18T01:00:35;5.70;;;2.90;;
63394;SDS011;49531;-34.520;150.798;2023-09-18T01:03:03;4.72;;;2.75;;
63394;SDS011;49531;-34.520;150.798;2023-09-18T01:05:33;5.95;;;3.00;;
63394;SDS011;49531;-34.520;150.798;2023-09-18T01:08:01;3.60;;;2.80;;
63394;SDS011;49531;-34.520;150.798;2023-09-18T01:10:32;3.72;;;2.80;;
63394;SDS011;49531;-34.520;150.798;2023-09-18T01:13:13;6.05;;;3.08;;
63394;SDS011;49531;-34.520;150.798;2023-09-18T01:15:50;6.97;;;3.00;;
63394;SDS011;49531;-34.520;150.798;2023-09-18T01:18:22;3.83;;;2.95;;
63394;SDS011;49531;-34.520;150.798;2023-09-18T01:20:49;3.67;;;2.88;;
63394;SDS011;49531;-34.520;150.798;2023-09-18T01:23:16;3.45;;;2.88;;
63394;SDS011;49531;-34.520;150.798;2023-09-18T01:25:43;5.30;;;2.92;;
63394;SDS011;49531;-34.520;150.798;2023-09-18T01:28:10;3.72;;;3.13;;
63394;SDS011;49531;-34.520;150.798;2023-09-18T01:30:37;5.35;;;3.20;;
63394;SDS011;49531;-34.520;150.798;2023-09-18T01:33:04;3.85;;;2.85;;
63394;SDS011;49531;-34.520;150.798;2023-09-18T01:35:33;3.30;;;3.00;;
63394;SDS011;49531;-34.520;150.798;2023-09-18T01:38:02;5.20;;;3.00;;
63394;SDS011;49531;-34.520;150.798;2023-09-18T01:40:30;3.90;;;3.08;;
63394;SDS011;49531;-34.520;150.798;2023-09-18T01:42:58;3.47;;;2.90;;
63394;SDS011;49531;-34.520;150.798;2023-09-18T01:45:25;4.47;;;2.80;;
63394;SDS011;49531;-34.520;150.798;2023-09-18T01:47:52;4.28;;;2.95;;
63394;SDS011;49531;-34.520;150.798;2023-09-18T01:50:20;3.20;;;2.90;;
63394;SDS011;49531;-34.520;150.798;2023-09-18T01:52:47;5.03;;;3.22;;
63394;SDS011;49531;-34.520;150.798;2023-09-18T01:55:14;3.70;;;3.10;;
63394;SDS011;49531;-34.520;150.798;2023-09-18T01:57:41;3.70;;;3.00;;
63394;SDS011;49531;-34.520;150.798;2023-09-18T02:00:09;6.45;;;3.30;;
63394;SDS011;49531;-34.520;150.798;2023-09-18T02:02:37;6.53;;;3.10;;
63394;SDS011;49531;-34.520;150.798;2023-09-18T02:05:05;7.00;;;3.22;;
63394;SDS011;49531;-34.520;150.798;2023-09-18T02:07:32;5.18;;;2.85;;
63394;SDS011;49531;-34.520;150.798;2023-09-18T02:09:59;4.43;;;3.20;;
63394;SDS011;49531;-34.520;150.798;2023-09-18T02:12:27;4.32;;;3.30;;
63394;SDS011;49531;-34.520;150.798;2023-09-18T02:14:54;5.45;;;3.13;;
63394;SDS011;49531;-34.520;150.798;2023-09-18T02:17:24;3.53;;;3.17;;
63394;SDS011;49531;-34.520;150.798;2023-09-18T02:19:51;7.53;;;3.10;;
63394;SDS011;49531;-34.520;150.798;2023-09-18T02:22:18;11.75;;;3.50;;
63394;SDS011;49531;-34.520;150.798;2023-09-18T02:24:45;4.25;;;3.20;;
63394;SDS011;49531;-34.520;150.798;2023-09-18T02:27:12;7.85;;;3.40;;
63394;SDS011;49531;-34.520;150.798;2023-09-18T02:29:39;4.85;;;2.90;;
63394;SDS011;49531;-34.520;150.798;2023-09-18T02:32:07;4.55;;;3.30;;
63394;SDS011;49531;-34.520;150.798;2023-09-18T02:34:35;3.65;;;3.20;;
63394;SDS011;49531;-34.520;150.798;2023-09-18T02:37:02;3.90;;;3.20;;
63394;SDS011;49531;-34.520;150.798;2023-09-18T02:39:29;5.38;;;3.20;;
63394;SDS011;49531;-34.520;150.798;2023-09-18T02:41:57;3.55;;;3.25;;
63394;SDS011;49531;-34.520;150.798;2023-09-18T02:44:24;5.47;;;3.30;;
63394;SDS011;49531;-34.520;150.798;2023-09-18T02:46:51;5.05;;;2.97;;
63394;SDS011;49531;-34.520;150.798;2023-09-18T02:49:18;5.88;;;3.30;;
63394;SDS011;49531;-34.520;150.798;2023-09-18T02:51:46;4.03;;;3.47;;
63394;SDS011;49531;-34.520;150.798;2023-09-18T02:54:14;3.47;;;3.13;;
63394;SDS011;49531;-34.520;150.798;2023-09-18T02:56:41;5.82;;;3.28;;
63394;SDS011;49531;-34.520;150.798;2023-09-18T02:59:08;4.40;;;3.40;;
63394;SDS011;49531;-34.520;150.798;2023-09-18T03:01:35;3.40;;;3.10;;
63394;SDS011;49531;-34.520;150.798;2023-09-18T03:04:02;4.35;;;3.40;;
63394;SDS011;49531;-34.520;150.798;2023-09-18T03:06:29;4.72;;;3.33;;
63394;SDS011;49531;-34.520;150.798;2023-09-18T03:08:56;8.95;;;3.38;;
63394;SDS011;49531;-34.520;150.798;2023-09-18T03:11:29;6.25;;;3.33;;
63394;SDS011;49531;-34.520;150.798;2023-09-18T03:13:56;6.00;;;3.63;;
63394;SDS011;49531;-34.520;150.798;2023-09-18T03:16:23;4.55;;;3.50;;
63394;SDS011;49531;-34.520;150.798;2023-09-18T03:18:50;3.85;;;3.33;;
63394;SDS011;49531;-34.520;150.798;2023-09-18T03:21:18;5.55;;;3.47;;
63394;SDS011;49531;-34.520;150.798;2023-09-18T03:23:45;3.53;;;3.22;;
63394;SDS011;49531;-34.520;150.798;2023-09-18T03:26:12;4.20;;;3.78;;
63394;SDS011;49531;-34.520;150.798;2023-09-18T03:28:39;3.90;;;3.47;;
63394;SDS011;49531;-34.520;150.798;2023-09-18T03:31:07;4.15;;;3.42;;
63394;SDS011;49531;-34.520;150.798;2023-09-18T03:33:34;3.90;;;3.50;;
63394;SDS011;49531;-34.520;150.798;2023-09-18T03:36:01;5.07;;;3.50;;
63394;SDS011;49531;-34.520;150.798;2023-09-18T03:38:30;4.57;;;3.45;;
63394;SDS011;49531;-34.520;150.798;2023-09-18T03:41:01;5.47;;;3.50;;
63394;SDS011;49531;-34.520;150.798;2023-09-18T03:43:34;4.63;;;3.67;;
63394;SDS011;49531;-34.520;150.798;2023-09-18T03:46:04;7.47;;;3.85;;
63394;SDS011;49531;-34.520;150.798;2023-09-18T03:48:32;6.47;;;3.90;;
63394;SDS011;49531;-34.520;150.798;2023-09-18T03:51:06;8.70;;;4.28;;
63394;SDS011;49531;-34.520;150.798;2023-09-18T03:53:38;10.68;;;4.07;;
63394;SDS011;49531;-34.520;150.798;2023-09-18T03:56:05;12.82;;;4.13;;
63394;SDS011;49531;-34.520;150.798;2023-09-18T03:58:32;9.45;;;3.80;;
63394;SDS011;49531;-34.520;150.798;2023-09-18T04:00:59;8.95;;;3.85;;
63394;SDS011;49531;-34.520;150.798;2023-09-18T04:03:27;13.00;;;4.03;;
63394;SDS011;49531;-34.520;150.798;2023-09-18T04:05:54;7.68;;;3.70;;
63394;SDS011;49531;-34.520;150.798;2023-09-18T04:08:21;7.22;;;3.72;;
63394;SDS011;49531;-34.520;150.798;2023-09-18T04:10:48;8.07;;;4.00;;
63394;SDS011;49531;-34.520;150.798;2023-09-18T04:13:15;12.45;;;4.03;;
63394;SDS011;49531;-34.520;150.798;2023-09-18T04:15:42;9.93;;;4.20;;
63394;SDS011;49531;-34.520;150.798;2023-09-18T04:18:11;9.20;;;3.92;;
63394;SDS011;49531;-34.520;150.798;2023-09-18T04:20:41;11.52;;;3.80;;
63394;SDS011;49531;-34.520;150.798;2023-09-18T04:23:21;7.43;;;3.80;;
63394;SDS011;49531;-34.520;150.798;2023-09-18T04:25:51;7.22;;;3.88;;
63394;SDS011;49531;-34.520;150.798;2023-09-18T04:28:19;7.97;;;3.88;;
63394;SDS011;49531;-34.520;150.798;2023-09-18T04:30:48;9.55;;;4.07;;
63394;SDS011;49531;-34.520;150.798;2023-09-18T04:33:15;7.07;;;3.85;;
63394;SDS011;49531;-34.520;150.798;2023-09-18T04:35:43;7.18;;;3.83;;
63394;SDS011;49531;-34.520;150.798;2023-09-18T04:38:10;7.28;;;3.83;;
63394;SDS011;49531;-34.520;150.798;2023-09-18T04:40:40;7.57;;;3.80;;
63394;SDS011;49531;-34.520;150.798;2023-09-18T04:43:07;6.25;;;3.63;;
63394;SDS011;49531;-34.520;150.798;2023-09-18T04:45:34;9.13;;;3.63;;
63394;SDS011;49531;-34.520;150.798;2023-09-18T04:48:01;5.82;;;3.40;;
63394;SDS011;49531;-34.520;150.798;2023-09-18T04:50:31;6.10;;;3.75;;
63394;SDS011;49531;-34.520;150.798;2023-09-18T04:52:59;5.70;;;4.00;;
63394;SDS011;49531;-34.520;150.798;2023-09-18T04:55:26;9.52;;;4.13;;
63394;SDS011;49531;-34.520;150.798;2023-09-18T04:57:53;7.88;;;4.05;;
63394;SDS011;49531;-34.520;150.798;2023-09-18T05:00:20;10.00;;;4.30;;
63394;SDS011;49531;-34.520;150.798;2023-09-18T05:02:49;8.98;;;4.10;;
63394;SDS011;49531;-34.520;150.798;2023-09-18T05:05:16;6.05;;;3.80;;
63394;SDS011;49531;-34.520;150.798;2023-09-18T05:07:44;9.60;;;4.13;;
63394;SDS011;49531;-34.520;150.798;2023-09-18T05:10:11;6.43;;;3.90;;
63394;SDS011;49531;-34.520;150.798;2023-09-18T05:12:39;8.05;;;4.60;;
63394;SDS011;49531;-34.520;150.798;2023-09-18T05:15:07;8.75;;;4.45;;
63394;SDS011;49531;-34.520;150.798;2023-09-18T05:17:45;6.45;;;4.18;;
63394;SDS011;49531;-34.520;150.798;2023-09-18T05:20:13;5.90;;;3.90;;
63394;SDS011;49531;-34.520;150.798;2023-09-18T05:22:42;9.57;;;4.57;;
63394;SDS011;49531;-34.520;150.798;2023-09-18T05:25:10;6.70;;;4.18;;
63394;SDS011;49531;-34.520;150.798;2023-09-18T05:27:38;6.63;;;4.10;;
63394;SDS011;49531;-34.520;150.798;2023-09-18T05:30:12;5.85;;;4.15;;
63394;SDS011;49531;-34.520;150.798;2023-09-18T05:32:48;9.43;;;4.25;;
63394;SDS011;49531;-34.520;150.798;2023-09-18T05:35:15;7.50;;;4.22;;
63394;SDS011;49531;-34.520;150.798;2023-09-18T05:37:43;9.27;;;4.07;;
63394;SDS011;49531;-34.520;150.798;2023-09-18T05:40:11;6.10;;;4.00;;
63394;SDS011;49531;-34.520;150.798;2023-09-18T05:42:39;5.53;;;4.07;;
63394;SDS011;49531;-34.520;150.798;2023-09-18T05:45:11;6.80;;;4.18;;
63394;SDS011;49531;-34.520;150.798;2023-09-18T05:47:39;5.68;;;4.05;;
63394;SDS011;49531;-34.520;150.798;2023-09-18T05:50:07;6.07;;;4.00;;
63394;SDS011;49531;-34.520;150.798;2023-09-18T05:52:35;6.22;;;3.80;;
63394;SDS011;49531;-34.520;150.798;2023-09-18T05:55:02;6.30;;;4.30;;
63394;SDS011;49531;-34.520;150.798;2023-09-18T05:57:30;8.63;;;4.68;;
63394;SDS011;49531;-34.520;150.798;2023-09-18T05:59:57;7.45;;;4.20;;
63394;SDS011;49531;-34.520;150.798;2023-09-18T06:02:24;7.68;;;4.40;;
63394;SDS011;49531;-34.520;150.798;2023-09-18T06:04:55;10.30;;;4.68;;
63394;SDS011;49531;-34.520;150.798;2023-09-18T06:07:28;10.80;;;4.72;;
63394;SDS011;49531;-34.520;150.798;2023-09-18T06:09:57;8.52;;;4.68;;
63394;SDS011;49531;-34.520;150.798;2023-09-18T06:12:24;9.85;;;4.60;;
63394;SDS011;49531;-34.520;150.798;2023-09-18T06:14:51;7.68;;;4.68;;
63394;SDS011;49531;-34.520;150.798;2023-09-18T06:17:19;9.45;;;4.78;;
63394;SDS011;49531;-34.520;150.798;2023-09-18T06:19:46;12.85;;;5.00;;
63394;SDS011;49531;-34.520;150.798;2023-09-18T06:22:13;10.18;;;4.70;;
63394;SDS011;49531;-34.520;150.798;2023-09-18T06:24:40;10.63;;;4.88;;
63394;SDS011;49531;-34.520;150.798;2023-09-18T06:27:11;10.43;;;4.95;;
63394;SDS011;49531;-34.520;150.798;2023-09-18T06:29:38;7.55;;;4.70;;
63394;SDS011;49531;-34.520;150.798;2023-09-18T06:35:33;7.55;;;4.80;;
63394;SDS011;49531;-34.520;150.798;2023-09-18T06:38:21;10.35;;;4.82;;
63394;SDS011;49531;-34.520;150.798;2023-09-18T06:40:57;8.95;;;5.00;;
63394;SDS011;49531;-34.520;150.798;2023-09-18T06:43:36;9.25;;;4.75;;
63394;SDS011;49531;-34.520;150.798;2023-09-18T06:46:08;8.57;;;4.22;;
63394;SDS011;49531;-34.520;150.798;2023-09-18T06:48:56;11.65;;;4.82;;
63394;SDS011;49531;-34.520;150.798;2023-09-18T06:51:25;8.77;;;4.90;;
63394;SDS011;49531;-34.520;150.798;2023-09-18T06:53:58;10.98;;;5.07;;
63394;SDS011;49531;-34.520;150.798;2023-09-18T06:56:28;8.07;;;4.68;;
63394;SDS011;49531;-34.520;150.798;2023-09-18T06:58:59;9.60;;;4.68;;
63394;SDS011;49531;-34.520;150.798;2023-09-18T07:01:26;8.50;;;4.63;;
63394;SDS011;49531;-34.520;150.798;2023-09-18T07:03:53;11.15;;;5.10;;
63394;SDS011;49531;-34.520;150.798;2023-09-18T07:06:21;7.97;;;4.63;;
63394;SDS011;49531;-34.520;150.798;2023-09-18T07:08:48;8.25;;;4.72;;
63394;SDS011;49531;-34.520;150.798;2023-09-18T07:11:16;9.98;;;4.90;;
63394;SDS011;49531;-34.520;150.798;2023-09-18T07:13:43;10.52;;;5.07;;
63394;SDS011;49531;-34.520;150.798;2023-09-18T07:16:11;14.63;;;6.03;;
63394;SDS011;49531;-34.520;150.798;2023-09-18T07:18:39;21.42;;;8.35;;
63394;SDS011;49531;-34.520;150.798;2023-09-18T07:21:06;24.75;;;8.63;;
63394;SDS011;49531;-34.520;150.798;2023-09-18T07:23:33;24.52;;;8.90;;
63394;SDS011;49531;-34.520;150.798;2023-09-18T07:26:03;21.95;;;9.35;;
63394;SDS011;49531;-34.520;150.798;2023-09-18T07:28:31;24.30;;;9.00;;
63394;SDS011;49531;-34.520;150.798;2023-09-18T07:31:08;21.05;;;7.18;;
63394;SDS011;49531;-34.520;150.798;2023-09-18T07:33:37;22.40;;;7.50;;
63394;SDS011;49531;-34.520;150.798;2023-09-18T07:36:04;19.65;;;7.38;;
63394;SDS011;49531;-34.520;150.798;2023-09-18T07:38:32;15.13;;;7.40;;
63394;SDS011;49531;-34.520;150.798;2023-09-18T07:41:02;16.33;;;7.13;;
63394;SDS011;49531;-34.520;150.798;2023-09-18T07:43:30;16.77;;;7.03;;
63394;SDS011;49531;-34.520;150.798;2023-09-18T07:45:57;15.10;;;7.00;;
63394;SDS011;49531;-34.520;150.798;2023-09-18T07:48:25;12.57;;;6.70;;
63394;SDS011;49531;-34.520;150.798;2023-09-18T07:50:52;12.98;;;6.75;;
63394;SDS011;49531;-34.520;150.798;2023-09-18T07:53:20;14.32;;;6.90;;
63394;SDS011;49531;-34.520;150.798;2023-09-18T07:55:48;15.75;;;6.75;;
63394;SDS011;49531;-34.520;150.798;2023-09-18T07:58:25;13.45;;;6.38;;
63394;SDS011;49531;-34.520;150.798;2023-09-18T08:00:56;13.85;;;6.80;;
63394;SDS011;49531;-34.520;150.798;2023-09-18T08:03:23;11.35;;;6.40;;
63394;SDS011;49531;-34.520;150.798;2023-09-18T08:05:54;14.02;;;6.70;;
63394;SDS011;49531;-34.520;150.798;2023-09-18T08:08:21;11.65;;;6.13;;
63394;SDS011;49531;-34.520;150.798;2023-09-18T08:10:53;11.40;;;5.93;;
63394;SDS011;49531;-34.520;150.798;2023-09-18T08:13:21;13.43;;;6.20;;
63394;SDS011;49531;-34.520;150.798;2023-09-18T08:15:49;18.33;;;6.82;;
63394;SDS011;49531;-34.520;150.798;2023-09-18T08:18:16;13.80;;;6.55;;
63394;SDS011;49531;-34.520;150.798;2023-09-18T08:20:43;12.15;;;6.25;;
63394;SDS011;49531;-34.520;150.798;2023-09-18T08:23:11;13.80;;;6.72;;
63394;SDS011;49531;-34.520;150.798;2023-09-18T08:25:38;14.48;;;6.65;;
63394;SDS011;49531;-34.520;150.798;2023-09-18T08:28:06;16.65;;;8.00;;
63394;SDS011;49531;-34.520;150.798;2023-09-18T08:30:33;16.92;;;7.95;;
63394;SDS011;49531;-34.520;150.798;2023-09-18T08:33:02;12.88;;;6.82;;
63394;SDS011;49531;-34.520;150.798;2023-09-18T08:35:30;13.52;;;7.05;;
63394;SDS011;49531;-34.520;150.798;2023-09-18T08:37:57;16.33;;;7.18;;
63394;SDS011;49531;-34.520;150.798;2023-09-18T08:40:24;14.68;;;7.03;;
63394;SDS011;49531;-34.520;150.798;2023-09-18T08:42:52;13.65;;;6.65;;
63394;SDS011;49531;-34.520;150.798;2023-09-18T08:48:05;12.27;;;6.43;;
63394;SDS011;49531;-34.520;150.798;2023-09-18T08:50:33;15.70;;;6.60;;
63394;SDS011;49531;-34.520;150.798;2023-09-18T08:53:01;16.77;;;6.88;;
63394;SDS011;49531;-34.520;150.798;2023-09-18T08:55:29;13.20;;;6.32;;
63394;SDS011;49531;-34.520;150.798;2023-09-18T08:57:58;18.48;;;6.95;;
63394;SDS011;49531;-34.520;150.798;2023-09-18T09:00:25;13.48;;;6.82;;
63394;SDS011;49531;-34.520;150.798;2023-09-18T09:02:53;12.27;;;6.47;;
63394;SDS011;49531;-34.520;150.798;2023-09-18T09:05:21;13.55;;;6.55;;
63394;SDS011;49531;-34.520;150.798;2023-09-18T09:07:49;18.38;;;6.80;;
63394;SDS011;49531;-34.520;150.798;2023-09-18T09:10:17;13.07;;;6.47;;
63394;SDS011;49531;-34.520;150.798;2023-09-18T09:15:14;16.05;;;6.80;;
63394;SDS011;49531;-34.520;150.798;2023-09-18T09:17:42;13.55;;;6.63;;
63394;SDS011;49531;-34.520;150.798;2023-09-18T09:20:14;14.88;;;6.78;;
63394;SDS011;49531;-34.520;150.798;2023-09-18T09:22:44;13.85;;;6.70;;
63394;SDS011;49531;-34.520;150.798;2023-09-18T09:27:49;14.68;;;6.88;;
63394;SDS011;49531;-34.520;150.798;2023-09-18T09:30:20;13.02;;;6.35;;
63394;SDS011;49531;-34.520;150.798;2023-09-18T09:32:49;14.05;;;6.68;;
63394;SDS011;49531;-34.520;150.798;2023-09-18T09:35:27;14.35;;;6.82;;
63394;SDS011;49531;-34.520;150.798;2023-09-18T09:38:00;16.23;;;6.68;;
63394;SDS011;49531;-34.520;150.798;2023-09-18T09:40:33;13.10;;;7.07;;
63394;SDS011;49531;-34.520;150.798;2023-09-18T09:43:03;14.63;;;6.80;;
63394;SDS011;49531;-34.520;150.798;2023-09-18T09:45:33;12.95;;;6.38;;
63394;SDS011;49531;-34.520;150.798;2023-09-18T09:48:04;12.90;;;6.70;;
63394;SDS011;49531;-34.520;150.798;2023-09-18T09:50:32;14.80;;;7.03;;
63394;SDS011;49531;-34.520;150.798;2023-09-18T09:53:00;11.82;;;6.60;;
63394;SDS011;49531;-34.520;150.798;2023-09-18T09:55:31;14.48;;;7.03;;
63394;SDS011;49531;-34.520;150.798;2023-09-18T09:58:00;9.40;;;6.10;;
63394;SDS011;49531;-34.520;150.798;2023-09-18T10:00:41;12.40;;;6.40;;
63394;SDS011;49531;-34.520;150.798;2023-09-18T10:03:17;11.38;;;6.70;;
63394;SDS011;49531;-34.520;150.798;2023-09-18T10:05:47;14.98;;;6.95;;
63394;SDS011;49531;-34.520;150.798;2023-09-18T10:08:26;13.45;;;6.68;;
63394;SDS011;49531;-34.520;150.798;2023-09-18T10:11:07;13.68;;;6.95;;
63394;SDS011;49531;-34.520;150.798;2023-09-18T10:16:22;14.40;;;6.75;;
63394;SDS011;49531;-34.520;150.798;2023-09-18T10:22:16;14.50;;;6.80;;
63394;SDS011;49531;-34.520;150.798;2023-09-18T10:25:03;11.90;;;6.57;;
63394;SDS011;49531;-34.520;150.798;2023-09-18T10:27:47;12.18;;;6.65;;
63394;SDS011;49531;-34.520;150.798;2023-09-18T10:30:21;14.20;;;6.68;;
63394;SDS011;49531;-34.520;150.798;2023-09-18T10:32:49;12.50;;;6.63;;
63394;SDS011;49531;-34.520;150.798;2023-09-18T10:35:31;16.17;;;6.35;;
63394;SDS011;49531;-34.520;150.798;2023-09-18T10:37:58;11.68;;;6.43;;
63394;SDS011;49531;-34.520;150.798;2023-09-18T10:40:28;13.85;;;6.80;;
63394;SDS011;49531;-34.520;150.798;2023-09-18T10:42:57;11.10;;;6.45;;
63394;SDS011;49531;-34.520;150.798;2023-09-18T10:45:36;12.73;;;6.55;;
63394;SDS011;49531;-34.520;150.798;2023-09-18T10:48:10;13.05;;;6.85;;
63394;SDS011;49531;-34.520;150.798;2023-09-18T10:50:49;12.85;;;6.57;;
63394;SDS011;49531;-34.520;150.798;2023-09-18T10:53:18;12.82;;;6.40;;
63394;SDS011;49531;-34.520;150.798;2023-09-18T10:55:51;13.38;;;6.75;;
63394;SDS011;49531;-34.520;150.798;2023-09-18T10:58:25;14.63;;;6.78;;
63394;SDS011;49531;-34.520;150.798;2023-09-18T11:00:56;12.57;;;6.53;;
63394;SDS011;49531;-34.520;150.798;2023-09-18T11:03:49;11.70;;;6.47;;
63394;SDS011;49531;-34.520;150.798;2023-09-18T11:09:25;12.70;;;6.68;;
63394;SDS011;49531;-34.520;150.798;2023-09-18T11:11:54;12.05;;;6.88;;
63394;SDS011;49531;-34.520;150.798;2023-09-18T11:15:14;12.45;;;6.13;;
63394;SDS011;49531;-34.520;150.798;2023-09-18T11:17:41;13.05;;;6.45;;
63394;SDS011;49531;-34.520;150.798;2023-09-18T11:20:24;10.52;;;6.00;;
63394;SDS011;49531;-34.520;150.798;2023-09-18T11:23:38;10.70;;;6.53;;
63394;SDS011;49531;-34.520;150.798;2023-09-18T11:26:31;9.73;;;5.97;;
63394;SDS011;49531;-34.520;150.798;2023-09-18T11:29:07;10.45;;;6.03;;
63394;SDS011;49531;-34.520;150.798;2023-09-18T11:31:57;10.18;;;6.15;;
63394;SDS011;49531;-34.520;150.798;2023-09-18T11:34:30;11.70;;;6.30;;
63394;SDS011;49531;-34.520;150.798;2023-09-18T11:40:06;9.50;;;6.03;;
63394;SDS011;49531;-34.520;150.798;2023-09-18T11:45:56;9.52;;;5.82;;
63394;SDS011;49531;-34.520;150.798;2023-09-18T11:48:44;8.73;;;5.55;;
63394;SDS011;49531;-34.520;150.798;2023-09-18T11:51:20;9.55;;;5.65;;
63394;SDS011;49531;-34.520;150.798;2023-09-18T11:54:07;9.60;;;5.90;;
63394;SDS011;49531;-34.520;150.798;2023-09-18T11:56:50;8.73;;;5.90;;
63394;SDS011;49531;-34.520;150.798;2023-09-18T12:02:02;7.68;;;5.65;;
63394;SDS011;49531;-34.520;150.798;2023-09-18T12:04:34;7.40;;;5.53;;
63394;SDS011;49531;-34.520;150.798;2023-09-18T12:07:34;7.80;;;5.80;;
63394;SDS011;49531;-34.520;150.798;2023-09-18T12:10:07;10.10;;;5.63;;
63394;SDS011;49531;-34.520;150.798;2023-09-18T12:12:38;8.10;;;5.57;;
63394;SDS011;49531;-34.520;150.798;2023-09-18T12:15:13;7.32;;;5.47;;
63394;SDS011;49531;-34.520;150.798;2023-09-18T12:17:43;7.88;;;5.38;;
63394;SDS011;49531;-34.520;150.798;2023-09-18T12:20:17;6.65;;;5.20;;
63394;SDS011;49531;-34.520;150.798;2023-09-18T12:23:05;8.65;;;5.50;;
63394;SDS011;49531;-34.520;150.798;2023-09-18T12:25:38;5.80;;;5.07;;
63394;SDS011;49531;-34.520;150.798;2023-09-18T12:28:36;6.75;;;5.03;;
63394;SDS011;49531;-34.520;150.798;2023-09-18T12:31:24;7.00;;;5.20;;
63394;SDS011;49531;-34.520;150.798;2023-09-18T12:34:03;6.90;;;5.18;;
63394;SDS011;49531;-34.520;150.798;2023-09-18T12:36:33;7.60;;;5.22;;
63394;SDS011;49531;-34.520;150.798;2023-09-18T12:39:01;6.43;;;5.10;;
63394;SDS011;49531;-34.520;150.798;2023-09-18T12:41:37;6.53;;;5.28;;
63394;SDS011;49531;-34.520;150.798;2023-09-18T12:44:16;6.70;;;5.05;;
63394;SDS011;49531;-34.520;150.798;2023-09-18T12:46:52;8.48;;;5.30;;
63394;SDS011;49531;-34.520;150.798;2023-09-18T12:49:20;5.82;;;4.80;;
63394;SDS011;49531;-34.520;150.798;2023-09-18T12:52:02;6.82;;;4.80;;
63394;SDS011;49531;-34.520;150.798;2023-09-18T12:54:51;6.25;;;4.82;;
63394;SDS011;49531;-34.520;150.798;2023-09-18T12:57:39;6.28;;;5.20;;
63394;SDS011;49531;-34.520;150.798;2023-09-18T13:00:33;6.38;;;4.88;;
63394;SDS011;49531;-34.520;150.798;2023-09-18T13:03:41;5.55;;;4.82;;
63394;SDS011;49531;-34.520;150.798;2023-09-18T13:06:52;5.97;;;4.70;;
63394;SDS011;49531;-34.520;150.798;2023-09-18T13:10:05;5.68;;;4.70;;
63394;SDS011;49531;-34.520;150.798;2023-09-18T13:12:53;5.40;;;4.70;;
63394;SDS011;49531;-34.520;150.798;2023-09-18T13:15:25;5.82;;;4.90;;
63394;SDS011;49531;-34.520;150.798;2023-09-18T13:17:53;6.55;;;4.75;;
63394;SDS011;49531;-34.520;150.798;2023-09-18T13:20:28;6.50;;;4.97;;
63394;SDS011;49531;-34.520;150.798;2023-09-18T13:22:57;5.72;;;4.80;;
63394;SDS011;49531;-34.520;150.798;2023-09-18T13:25:40;6.13;;;4.90;;
63394;SDS011;49531;-34.520;150.798;2023-09-18T13:28:12;7.63;;;5.22;;
63394;SDS011;49531;-34.520;150.798;2023-09-18T13:30:41;5.85;;;4.70;;
63394;SDS011;49531;-34.520;150.798;2023-09-18T13:33:09;5.70;;;5.07;;
63394;SDS011;49531;-34.520;150.798;2023-09-18T13:35:38;6.47;;;4.72;;
63394;SDS011;49531;-34.520;150.798;2023-09-18T13:38:07;6.53;;;5.03;;
63394;SDS011;49531;-34.520;150.798;2023-09-18T13:40:40;8.27;;;4.75;;
63394;SDS011;49531;-34.520;150.798;2023-09-18T13:43:11;6.47;;;4.93;;
63394;SDS011;49531;-34.520;150.798;2023-09-18T13:48:07;6.53;;;5.20;;
63394;SDS011;49531;-34.520;150.798;2023-09-18T13:50:35;5.88;;;5.07;;
63394;SDS011;49531;-34.520;150.798;2023-09-18T13:53:04;6.43;;;5.18;;
63394;SDS011;49531;-34.520;150.798;2023-09-18T13:55:32;7.13;;;4.90;;
63394;SDS011;49531;-34.520;150.798;2023-09-18T13:58:00;6.22;;;5.20;;
63394;SDS011;49531;-34.520;150.798;2023-09-18T14:00:30;6.22;;;5.18;;
63394;SDS011;49531;-34.520;150.798;2023-09-18T14:02:58;6.80;;;5.40;;
63394;SDS011;49531;-34.520;150.798;2023-09-18T14:05:26;9.77;;;4.82;;
63394;SDS011;49531;-34.520;150.798;2023-09-18T14:07:58;5.88;;;4.93;;
63394;SDS011;49531;-34.520;150.798;2023-09-18T14:10:29;6.45;;;4.97;;
63394;SDS011;49531;-34.520;150.798;2023-09-18T14:12:56;6.63;;;5.05;;
63394;SDS011;49531;-34.520;150.798;2023-09-18T14:15:23;6.18;;;4.68;;
63394;SDS011;49531;-34.520;150.798;2023-09-18T14:17:51;6.68;;;5.00;;
63394;SDS011;49531;-34.520;150.798;2023-09-18T14:20:19;6.72;;;5.13;;
63394;SDS011;49531;-34.520;150.798;2023-09-18T14:22:47;5.85;;;5.13;;
63394;SDS011;49531;-34.520;150.798;2023-09-18T14:25:15;7.30;;;4.97;;
63394;SDS011;49531;-34.520;150.798;2023-09-18T14:27:45;6.28;;;4.90;;
63394;SDS011;49531;-34.520;150.798;2023-09-18T14:30:12;6.20;;;5.20;;
63394;SDS011;49531;-34.520;150.798;2023-09-18T14:32:40;5.82;;;4.85;;
63394;SDS011;49531;-34.520;150.798;2023-09-18T14:35:07;5.70;;;5.10;;
63394;SDS011;49531;-34.520;150.798;2023-09-18T14:37:35;5.82;;;4.88;;
63394;SDS011;49531;-34.520;150.798;2023-09-18T14:40:02;5.32;;;4.68;;
63394;SDS011;49531;-34.520;150.798;2023-09-18T14:42:30;5.40;;;4.90;;
63394;SDS011;49531;-34.520;150.798;2023-09-18T14:44:58;5.95;;;4.60;;
63394;SDS011;49531;-34.520;150.798;2023-09-18T14:47:26;5.97;;;4.93;;
63394;SDS011;49531;-34.520;150.798;2023-09-18T14:49:53;5.90;;;4.85;;
63394;SDS011;49531;-34.520;150.798;2023-09-18T14:52:20;5.57;;;5.00;;
63394;SDS011;49531;-34.520;150.798;2023-09-18T14:54:54;5.22;;;4.72;;
63394;SDS011;49531;-34.520;150.798;2023-09-18T14:57:21;5.22;;;4.70;;